sensor_id;sensor_type;location;lat;lon;timestamp;P1;durP1;ratioP1;P2;durP2;ratioP2
57047;SDS011;42934;54.294;18.598;2023-08-21T00:00:04;9.27;;;7.30;;
57047;SDS011;42934;54.294;18.598;2023-08-21T00:02:57;7.65;;;6.85;;
57047;SDS011;42934;54.294;18.598;2023-08-21T00:05:27;8.30;;;7.40;;
57047;SDS011;42934;54.294;18.598;2023-08-21T00:07:56;8.73;;;7.43;;
57047;SDS011;42934;54.294;18.598;2023-08-21T00:10:25;7.70;;;6.90;;
57047;SDS011;42934;54.294;18.598;2023-08-21T00:12:54;9.23;;;7.07;;
57047;SDS011;42934;54.294;18.598;2023-08-21T00:15:23;9.57;;;7.17;;
57047;SDS011;42934;54.294;18.598;2023-08-21T00:17:52;8.60;;;7.50;;
57047;SDS011;42934;54.294;18.598;2023-08-21T00:20:21;8.50;;;7.60;;
57047;SDS011;42934;54.294;18.598;2023-08-21T00:22:51;8.25;;;7.25;;
57047;SDS011;42934;54.294;18.598;2023-08-21T00:25:21;9.93;;;7.50;;
57047;SDS011;42934;54.294;18.598;2023-08-21T00:27:50;9.55;;;7.43;;
57047;SDS011;42934;54.294;18.598;2023-08-21T00:30:19;8.00;;;7.20;;
57047;SDS011;42934;54.294;18.598;2023-08-21T00:32:48;9.07;;;7.55;;
57047;SDS011;42934;54.294;18.598;2023-08-21T00:35:19;8.18;;;6.95;;
57047;SDS011;42934;54.294;18.598;2023-08-21T00:37:48;7.90;;;7.07;;
57047;SDS011;42934;54.294;18.598;2023-08-21T00:40:18;9.27;;;7.33;;
57047;SDS011;42934;54.294;18.598;2023-08-21T00:42:48;8.20;;;7.38;;
57047;SDS011;42934;54.294;18.598;2023-08-21T00:45:18;8.02;;;7.13;;
57047;SDS011;42934;54.294;18.598;2023-08-21T00:47:46;8.80;;;7.75;;
57047;SDS011;42934;54.294;18.598;2023-08-21T00:50:17;9.27;;;7.72;;
57047;SDS011;42934;54.294;18.598;2023-08-21T00:52:46;10.05;;;7.60;;
57047;SDS011;42934;54.294;18.598;2023-08-21T00:55:15;12.45;;;7.80;;
57047;SDS011;42934;54.294;18.598;2023-08-21T00:57:47;9.20;;;7.70;;
57047;SDS011;42934;54.294;18.598;2023-08-21T01:00:16;7.90;;;7.03;;
57047;SDS011;42934;54.294;18.598;2023-08-21T01:02:46;12.23;;;7.72;;
57047;SDS011;42934;54.294;18.598;2023-08-21T01:05:17;9.65;;;7.78;;
57047;SDS011;42934;54.294;18.598;2023-08-21T01:07:50;11.82;;;8.02;;
57047;SDS011;42934;54.294;18.598;2023-08-21T01:10:29;9.18;;;7.80;;
57047;SDS011;42934;54.294;18.598;2023-08-21T01:13:09;11.90;;;7.28;;
57047;SDS011;42934;54.294;18.598;2023-08-21T01:15:47;11.27;;;7.50;;
57047;SDS011;42934;54.294;18.598;2023-08-21T01:18:18;9.23;;;7.55;;
57047;SDS011;42934;54.294;18.598;2023-08-21T01:20:49;10.55;;;7.90;;
57047;SDS011;42934;54.294;18.598;2023-08-21T01:23:28;10.85;;;7.47;;
57047;SDS011;42934;54.294;18.598;2023-08-21T01:28:29;8.50;;;7.22;;
57047;SDS011;42934;54.294;18.598;2023-08-21T01:31:01;10.82;;;7.72;;
57047;SDS011;42934;54.294;18.598;2023-08-21T01:33:37;10.43;;;7.53;;
57047;SDS011;42934;54.294;18.598;2023-08-21T01:36:11;10.73;;;7.95;;
57047;SDS011;42934;54.294;18.598;2023-08-21T01:38:43;10.00;;;7.95;;
57047;SDS011;42934;54.294;18.598;2023-08-21T01:41:12;9.90;;;8.35;;
57047;SDS011;42934;54.294;18.598;2023-08-21T01:43:41;10.57;;;8.15;;
57047;SDS011;42934;54.294;18.598;2023-08-21T01:46:10;9.53;;;8.00;;
57047;SDS011;42934;54.294;18.598;2023-08-21T01:48:39;10.48;;;7.60;;
57047;SDS011;42934;54.294;18.598;2023-08-21T01:51:08;10.80;;;8.87;;
57047;SDS011;42934;54.294;18.598;2023-08-21T01:53:37;10.05;;;7.85;;
57047;SDS011;42934;54.294;18.598;2023-08-21T01:56:07;10.73;;;7.93;;
57047;SDS011;42934;54.294;18.598;2023-08-21T01:58:36;10.32;;;8.30;;
57047;SDS011;42934;54.294;18.598;2023-08-21T02:01:05;9.60;;;7.70;;
57047;SDS011;42934;54.294;18.598;2023-08-21T02:03:34;10.63;;;7.50;;
57047;SDS011;42934;54.294;18.598;2023-08-21T02:06:04;10.98;;;7.70;;
57047;SDS011;42934;54.294;18.598;2023-08-21T02:08:33;12.52;;;8.35;;
57047;SDS011;42934;54.294;18.598;2023-08-21T02:11:02;11.48;;;7.97;;
57047;SDS011;42934;54.294;18.598;2023-08-21T02:13:32;10.80;;;8.25;;
57047;SDS011;42934;54.294;18.598;2023-08-21T02:16:01;12.48;;;8.10;;
57047;SDS011;42934;54.294;18.598;2023-08-21T02:18:30;10.80;;;7.47;;
57047;SDS011;42934;54.294;18.598;2023-08-21T02:21:00;10.47;;;7.87;;
57047;SDS011;42934;54.294;18.598;2023-08-21T02:23:29;11.02;;;8.05;;
57047;SDS011;42934;54.294;18.598;2023-08-21T02:25:58;10.53;;;7.30;;
57047;SDS011;42934;54.294;18.598;2023-08-21T02:28:27;11.38;;;8.50;;
57047;SDS011;42934;54.294;18.598;2023-08-21T02:30:58;10.53;;;7.87;;
57047;SDS011;42934;54.294;18.598;2023-08-21T02:33:26;8.38;;;7.00;;
57047;SDS011;42934;54.294;18.598;2023-08-21T02:35:56;12.37;;;7.50;;
57047;SDS011;42934;54.294;18.598;2023-08-21T02:38:29;12.88;;;7.55;;
57047;SDS011;42934;54.294;18.598;2023-08-21T02:40:58;9.65;;;7.07;;
57047;SDS011;42934;54.294;18.598;2023-08-21T02:43:27;9.95;;;7.18;;
57047;SDS011;42934;54.294;18.598;2023-08-21T02:45:57;9.32;;;6.78;;
57047;SDS011;42934;54.294;18.598;2023-08-21T02:48:26;8.73;;;6.55;;
57047;SDS011;42934;54.294;18.598;2023-08-21T02:50:55;9.55;;;7.18;;
57047;SDS011;42934;54.294;18.598;2023-08-21T02:53:26;11.57;;;7.25;;
57047;SDS011;42934;54.294;18.598;2023-08-21T02:55:55;8.80;;;6.63;;
57047;SDS011;42934;54.294;18.598;2023-08-21T02:58:24;7.43;;;6.25;;
57047;SDS011;42934;54.294;18.598;2023-08-21T03:00:53;10.77;;;6.97;;
57047;SDS011;42934;54.294;18.598;2023-08-21T03:03:23;8.48;;;6.57;;
57047;SDS011;42934;54.294;18.598;2023-08-21T03:05:53;7.70;;;6.30;;
57047;SDS011;42934;54.294;18.598;2023-08-21T03:08:21;9.68;;;6.60;;
57047;SDS011;42934;54.294;18.598;2023-08-21T03:10:51;11.57;;;5.80;;
57047;SDS011;42934;54.294;18.598;2023-08-21T03:13:20;8.75;;;5.28;;
57047;SDS011;42934;54.294;18.598;2023-08-21T03:15:49;6.70;;;4.30;;
57047;SDS011;42934;54.294;18.598;2023-08-21T03:18:18;7.18;;;4.78;;
57047;SDS011;42934;54.294;18.598;2023-08-21T03:20:48;5.10;;;4.13;;
57047;SDS011;42934;54.294;18.598;2023-08-21T03:23:17;6.05;;;4.30;;
57047;SDS011;42934;54.294;18.598;2023-08-21T03:25:46;6.03;;;4.13;;
57047;SDS011;42934;54.294;18.598;2023-08-21T03:28:15;6.80;;;4.47;;
57047;SDS011;42934;54.294;18.598;2023-08-21T03:30:44;4.55;;;3.67;;
57047;SDS011;42934;54.294;18.598;2023-08-21T03:33:13;5.05;;;3.65;;
57047;SDS011;42934;54.294;18.598;2023-08-21T03:35:43;5.80;;;3.47;;
57047;SDS011;42934;54.294;18.598;2023-08-21T03:38:14;5.28;;;3.33;;
57047;SDS011;42934;54.294;18.598;2023-08-21T03:40:44;4.35;;;3.08;;
57047;SDS011;42934;54.294;18.598;2023-08-21T03:43:13;4.00;;;3.28;;
57047;SDS011;42934;54.294;18.598;2023-08-21T03:45:42;5.50;;;3.30;;
57047;SDS011;42934;54.294;18.598;2023-08-21T03:48:11;3.97;;;3.00;;
57047;SDS011;42934;54.294;18.598;2023-08-21T03:50:41;5.30;;;3.10;;
57047;SDS011;42934;54.294;18.598;2023-08-21T03:53:10;4.35;;;3.30;;
57047;SDS011;42934;54.294;18.598;2023-08-21T03:55:41;5.20;;;3.42;;
57047;SDS011;42934;54.294;18.598;2023-08-21T03:58:10;5.80;;;3.33;;
57047;SDS011;42934;54.294;18.598;2023-08-21T04:00:39;5.57;;;3.60;;
57047;SDS011;42934;54.294;18.598;2023-08-21T04:03:08;4.17;;;3.23;;
57047;SDS011;42934;54.294;18.598;2023-08-21T04:05:37;4.60;;;3.20;;
57047;SDS011;42934;54.294;18.598;2023-08-21T04:08:06;6.30;;;3.25;;
57047;SDS011;42934;54.294;18.598;2023-08-21T04:10:35;3.65;;;3.05;;
57047;SDS011;42934;54.294;18.598;2023-08-21T04:13:07;4.65;;;3.70;;
57047;SDS011;42934;54.294;18.598;2023-08-21T04:15:37;5.32;;;3.72;;
57047;SDS011;42934;54.294;18.598;2023-08-21T04:18:07;5.50;;;3.80;;
57047;SDS011;42934;54.294;18.598;2023-08-21T04:20:36;8.17;;;3.20;;
57047;SDS011;42934;54.294;18.598;2023-08-21T04:23:07;5.63;;;3.53;;
57047;SDS011;42934;54.294;18.598;2023-08-21T04:25:36;4.43;;;3.67;;
57047;SDS011;42934;54.294;18.598;2023-08-21T04:28:04;4.70;;;3.45;;
57047;SDS011;42934;54.294;18.598;2023-08-21T04:30:35;4.72;;;3.80;;
57047;SDS011;42934;54.294;18.598;2023-08-21T04:33:04;4.93;;;3.37;;
57047;SDS011;42934;54.294;18.598;2023-08-21T04:35:36;6.60;;;3.80;;
57047;SDS011;42934;54.294;18.598;2023-08-21T04:38:05;5.63;;;3.58;;
57047;SDS011;42934;54.294;18.598;2023-08-21T04:40:35;4.68;;;3.50;;
57047;SDS011;42934;54.294;18.598;2023-08-21T04:43:04;6.75;;;3.17;;
57047;SDS011;42934;54.294;18.598;2023-08-21T04:45:34;6.13;;;3.70;;
57047;SDS011;42934;54.294;18.598;2023-08-21T04:48:05;9.00;;;3.75;;
57047;SDS011;42934;54.294;18.598;2023-08-21T04:50:35;8.20;;;3.70;;
57047;SDS011;42934;54.294;18.598;2023-08-21T04:53:04;4.97;;;3.42;;
57047;SDS011;42934;54.294;18.598;2023-08-21T04:55:33;7.30;;;3.65;;
57047;SDS011;42934;54.294;18.598;2023-08-21T05:00:32;6.70;;;3.88;;
57047;SDS011;42934;54.294;18.598;2023-08-21T05:03:03;6.20;;;3.67;;
57047;SDS011;42934;54.294;18.598;2023-08-21T05:05:37;7.55;;;3.72;;
57047;SDS011;42934;54.294;18.598;2023-08-21T05:08:05;8.10;;;3.95;;
57047;SDS011;42934;54.294;18.598;2023-08-21T05:10:35;7.17;;;4.00;;
57047;SDS011;42934;54.294;18.598;2023-08-21T05:13:04;7.88;;;3.97;;
57047;SDS011;42934;54.294;18.598;2023-08-21T05:15:34;7.10;;;4.03;;
57047;SDS011;42934;54.294;18.598;2023-08-21T05:18:03;8.02;;;4.05;;
57047;SDS011;42934;54.294;18.598;2023-08-21T05:20:33;6.60;;;3.85;;
57047;SDS011;42934;54.294;18.598;2023-08-21T05:23:02;7.82;;;4.25;;
57047;SDS011;42934;54.294;18.598;2023-08-21T05:28:01;5.85;;;4.03;;
57047;SDS011;42934;54.294;18.598;2023-08-21T05:30:30;7.32;;;4.20;;
57047;SDS011;42934;54.294;18.598;2023-08-21T05:33:00;6.85;;;4.15;;
57047;SDS011;42934;54.294;18.598;2023-08-21T05:35:32;7.95;;;4.20;;
57047;SDS011;42934;54.294;18.598;2023-08-21T05:38:02;9.23;;;4.43;;
57047;SDS011;42934;54.294;18.598;2023-08-21T05:40:32;9.20;;;4.53;;
57047;SDS011;42934;54.294;18.598;2023-08-21T05:43:01;7.05;;;4.40;;
57047;SDS011;42934;54.294;18.598;2023-08-21T05:45:30;11.82;;;4.45;;
57047;SDS011;42934;54.294;18.598;2023-08-21T05:48:01;8.00;;;4.10;;
57047;SDS011;42934;54.294;18.598;2023-08-21T05:50:30;8.43;;;4.22;;
57047;SDS011;42934;54.294;18.598;2023-08-21T05:52:59;6.95;;;4.00;;
57047;SDS011;42934;54.294;18.598;2023-08-21T05:55:28;15.25;;;4.28;;
57047;SDS011;42934;54.294;18.598;2023-08-21T05:57:58;11.13;;;5.10;;
57047;SDS011;42934;54.294;18.598;2023-08-21T06:00:27;8.23;;;4.30;;
57047;SDS011;42934;54.294;18.598;2023-08-21T06:03:01;8.98;;;4.00;;
57047;SDS011;42934;54.294;18.598;2023-08-21T06:05:49;8.85;;;4.07;;
57047;SDS011;42934;54.294;18.598;2023-08-21T06:08:18;7.22;;;4.00;;
57047;SDS011;42934;54.294;18.598;2023-08-21T06:10:50;13.67;;;4.37;;
57047;SDS011;42934;54.294;18.598;2023-08-21T06:13:19;9.45;;;3.80;;
57047;SDS011;42934;54.294;18.598;2023-08-21T06:15:52;6.25;;;3.85;;
57047;SDS011;42934;54.294;18.598;2023-08-21T06:18:23;10.40;;;4.00;;
57047;SDS011;42934;54.294;18.598;2023-08-21T06:20:54;10.18;;;4.05;;
57047;SDS011;42934;54.294;18.598;2023-08-21T06:23:23;6.63;;;4.18;;
57047;SDS011;42934;54.294;18.598;2023-08-21T06:25:52;12.27;;;4.25;;
57047;SDS011;42934;54.294;18.598;2023-08-21T06:28:22;9.93;;;4.32;;
57047;SDS011;42934;54.294;18.598;2023-08-21T06:30:55;9.03;;;3.87;;
57047;SDS011;42934;54.294;18.598;2023-08-21T06:33:26;9.90;;;3.60;;
57047;SDS011;42934;54.294;18.598;2023-08-21T06:35:55;10.32;;;3.70;;
57047;SDS011;42934;54.294;18.598;2023-08-21T06:38:25;7.38;;;3.05;;
57047;SDS011;42934;54.294;18.598;2023-08-21T06:40:54;5.10;;;3.17;;
57047;SDS011;42934;54.294;18.598;2023-08-21T06:43:23;14.57;;;3.65;;
57047;SDS011;42934;54.294;18.598;2023-08-21T06:45:55;6.25;;;3.03;;
57047;SDS011;42934;54.294;18.598;2023-08-21T06:48:24;7.07;;;3.40;;
57047;SDS011;42934;54.294;18.598;2023-08-21T06:50:55;6.05;;;3.40;;
57047;SDS011;42934;54.294;18.598;2023-08-21T06:53:24;6.85;;;2.88;;
57047;SDS011;42934;54.294;18.598;2023-08-21T06:55:53;7.25;;;3.00;;
57047;SDS011;42934;54.294;18.598;2023-08-21T06:58:22;7.25;;;3.28;;
57047;SDS011;42934;54.294;18.598;2023-08-21T07:00:53;8.05;;;3.08;;
57047;SDS011;42934;54.294;18.598;2023-08-21T07:03:22;8.70;;;3.38;;
57047;SDS011;42934;54.294;18.598;2023-08-21T07:05:56;10.13;;;3.40;;
57047;SDS011;42934;54.294;18.598;2023-08-21T07:08:26;8.95;;;3.10;;
57047;SDS011;42934;54.294;18.598;2023-08-21T07:10:55;6.72;;;2.97;;
57047;SDS011;42934;54.294;18.598;2023-08-21T07:13:24;7.03;;;2.90;;
57047;SDS011;42934;54.294;18.598;2023-08-21T07:15:53;5.93;;;2.90;;
57047;SDS011;42934;54.294;18.598;2023-08-21T07:18:22;5.20;;;2.80;;
57047;SDS011;42934;54.294;18.598;2023-08-21T07:20:51;5.47;;;3.13;;
57047;SDS011;42934;54.294;18.598;2023-08-21T07:23:22;8.50;;;2.75;;
57047;SDS011;42934;54.294;18.598;2023-08-21T07:25:51;6.72;;;2.80;;
57047;SDS011;42934;54.294;18.598;2023-08-21T07:28:20;5.40;;;2.60;;
57047;SDS011;42934;54.294;18.598;2023-08-21T07:30:54;6.95;;;2.70;;
57047;SDS011;42934;54.294;18.598;2023-08-21T07:33:23;7.22;;;2.97;;
57047;SDS011;42934;54.294;18.598;2023-08-21T07:35:58;9.45;;;2.85;;
57047;SDS011;42934;54.294;18.598;2023-08-21T07:38:29;6.05;;;2.75;;
57047;SDS011;42934;54.294;18.598;2023-08-21T07:41:03;5.05;;;2.70;;
57047;SDS011;42934;54.294;18.598;2023-08-21T07:43:34;6.38;;;2.72;;
57047;SDS011;42934;54.294;18.598;2023-08-21T07:46:03;6.45;;;2.45;;
57047;SDS011;42934;54.294;18.598;2023-08-21T07:48:32;7.90;;;2.28;;
57047;SDS011;42934;54.294;18.598;2023-08-21T07:51:03;7.30;;;2.33;;
57047;SDS011;42934;54.294;18.598;2023-08-21T07:53:33;4.82;;;2.15;;
57047;SDS011;42934;54.294;18.598;2023-08-21T07:56:02;4.35;;;2.10;;
57047;SDS011;42934;54.294;18.598;2023-08-21T08:01:01;4.65;;;2.10;;
57047;SDS011;42934;54.294;18.598;2023-08-21T08:03:31;4.38;;;2.25;;
57047;SDS011;42934;54.294;18.598;2023-08-21T08:06:00;4.40;;;2.10;;
57047;SDS011;42934;54.294;18.598;2023-08-21T08:08:30;4.97;;;2.00;;
57047;SDS011;42934;54.294;18.598;2023-08-21T08:11:01;4.57;;;2.10;;
57047;SDS011;42934;54.294;18.598;2023-08-21T08:13:31;6.70;;;2.13;;
57047;SDS011;42934;54.294;18.598;2023-08-21T08:16:00;5.10;;;1.90;;
57047;SDS011;42934;54.294;18.598;2023-08-21T08:18:29;5.72;;;1.90;;
57047;SDS011;42934;54.294;18.598;2023-08-21T08:20:58;6.60;;;1.80;;
57047;SDS011;42934;54.294;18.598;2023-08-21T08:23:27;4.60;;;1.83;;
57047;SDS011;42934;54.294;18.598;2023-08-21T08:25:57;4.93;;;1.73;;
57047;SDS011;42934;54.294;18.598;2023-08-21T08:28:26;5.60;;;1.75;;
57047;SDS011;42934;54.294;18.598;2023-08-21T08:30:56;4.28;;;2.00;;
57047;SDS011;42934;54.294;18.598;2023-08-21T08:33:25;8.43;;;2.33;;
57047;SDS011;42934;54.294;18.598;2023-08-21T08:35:54;5.95;;;2.05;;
57047;SDS011;42934;54.294;18.598;2023-08-21T08:38:23;5.38;;;2.00;;
57047;SDS011;42934;54.294;18.598;2023-08-21T08:40:52;6.20;;;2.28;;
57047;SDS011;42934;54.294;18.598;2023-08-21T08:43:25;4.28;;;1.50;;
57047;SDS011;42934;54.294;18.598;2023-08-21T08:45:56;4.55;;;1.77;;
57047;SDS011;42934;54.294;18.598;2023-08-21T08:48:28;5.20;;;1.70;;
57047;SDS011;42934;54.294;18.598;2023-08-21T08:50:57;5.25;;;2.15;;
57047;SDS011;42934;54.294;18.598;2023-08-21T08:53:26;6.10;;;1.98;;
57047;SDS011;42934;54.294;18.598;2023-08-21T08:55:56;6.60;;;1.70;;
57047;SDS011;42934;54.294;18.598;2023-08-21T08:58:28;4.85;;;1.70;;
57047;SDS011;42934;54.294;18.598;2023-08-21T09:00:57;4.85;;;1.70;;
57047;SDS011;42934;54.294;18.598;2023-08-21T09:03:27;4.00;;;1.50;;
57047;SDS011;42934;54.294;18.598;2023-08-21T09:05:57;6.95;;;1.50;;
57047;SDS011;42934;54.294;18.598;2023-08-21T09:08:27;5.95;;;1.90;;
57047;SDS011;42934;54.294;18.598;2023-08-21T09:10:56;5.72;;;1.67;;
57047;SDS011;42934;54.294;18.598;2023-08-21T09:13:32;6.38;;;1.48;;
57047;SDS011;42934;54.294;18.598;2023-08-21T09:16:02;4.82;;;1.73;;
57047;SDS011;42934;54.294;18.598;2023-08-21T09:18:33;4.88;;;1.42;;
57047;SDS011;42934;54.294;18.598;2023-08-21T09:21:06;2.88;;;1.42;;
57047;SDS011;42934;54.294;18.598;2023-08-21T09:23:35;2.75;;;1.33;;
57047;SDS011;42934;54.294;18.598;2023-08-21T09:26:05;4.15;;;1.70;;
57047;SDS011;42934;54.294;18.598;2023-08-21T09:28:35;4.30;;;1.60;;
57047;SDS011;42934;54.294;18.598;2023-08-21T09:31:06;5.75;;;1.50;;
57047;SDS011;42934;54.294;18.598;2023-08-21T09:33:36;8.77;;;1.98;;
57047;SDS011;42934;54.294;18.598;2023-08-21T09:36:05;6.80;;;1.70;;
57047;SDS011;42934;54.294;18.598;2023-08-21T09:38:34;4.40;;;1.67;;
57047;SDS011;42934;54.294;18.598;2023-08-21T09:41:06;2.70;;;1.48;;
57047;SDS011;42934;54.294;18.598;2023-08-21T09:43:40;7.93;;;1.50;;
57047;SDS011;42934;54.294;18.598;2023-08-21T09:46:13;3.13;;;1.58;;
57047;SDS011;42934;54.294;18.598;2023-08-21T09:48:44;5.30;;;1.60;;
57047;SDS011;42934;54.294;18.598;2023-08-21T09:51:13;2.78;;;1.23;;
57047;SDS011;42934;54.294;18.598;2023-08-21T09:53:42;5.68;;;1.30;;
57047;SDS011;42934;54.294;18.598;2023-08-21T09:56:12;4.45;;;1.60;;
